createdAt,value
2023-02-08T00:01:26.190Z,9.85
2023-02-08T00:03:53.054Z,9.70
2023-02-08T00:06:19.784Z,9.88
2023-02-08T00:08:46.608Z,9.57
2023-02-08T00:11:13.125Z,9.73
2023-02-08T00:13:42.188Z,9.82
2023-02-08T00:16:09.460Z,9.10
2023-02-08T00:18:35.949Z,9.35
2023-02-08T00:21:09.530Z,10.35
2023-02-08T00:23:36.429Z,9.98
2023-02-08T00:26:03.385Z,8.90
2023-02-08T00:28:29.837Z,9.30
2023-02-08T00:30:56.307Z,9.48
2023-02-08T00:33:22.685Z,9.32
2023-02-08T00:35:49.099Z,9.40
2023-02-08T00:38:15.534Z,9.73
2023-02-08T00:40:42.258Z,9.98
2023-02-08T00:43:08.956Z,10.35
2023-02-08T00:45:35.376Z,10.27
2023-02-08T00:48:01.793Z,10.15
2023-02-08T00:50:28.205Z,10.02
2023-02-08T00:52:54.544Z,10.18
2023-02-08T00:55:21.040Z,9.45
2023-02-08T00:57:47.394Z,9.30
2023-02-08T01:00:14.116Z,9.70
2023-02-08T01:02:40.474Z,8.95
2023-02-08T01:05:07.689Z,9.40
2023-02-08T01:07:37.087Z,9.23
2023-02-08T01:10:05.291Z,9.68
2023-02-08T01:12:31.718Z,8.88
2023-02-08T01:14:58.146Z,9.13
2023-02-08T01:17:24.508Z,9.30
2023-02-08T01:19:50.877Z,10.32
2023-02-08T01:22:17.317Z,9.57
2023-02-08T01:24:43.699Z,9.38
2023-02-08T01:27:10.055Z,9.40
2023-02-08T01:29:36.617Z,9.93
2023-02-08T01:32:03.116Z,9.48
2023-02-08T01:34:29.748Z,9.80
2023-02-08T01:36:56.123Z,10.05
2023-02-08T01:39:22.514Z,10.32
2023-02-08T01:41:49.074Z,9.65
2023-02-08T01:44:15.464Z,9.68
2023-02-08T01:46:47.344Z,10.13
2023-02-08T01:49:23.232Z,10.23
2023-02-08T01:51:56.026Z,9.63
2023-02-08T01:54:25.911Z,9.07
2023-02-08T01:56:52.698Z,9.05
2023-02-08T01:59:30.324Z,9.60
2023-02-08T02:01:58.882Z,10.50
2023-02-08T02:04:27.014Z,9.85
2023-02-08T02:06:59.789Z,10.30
2023-02-08T02:09:33.332Z,9.13
2023-02-08T02:12:00.192Z,9.90
2023-02-08T02:14:26.736Z,9.95
2023-02-08T02:16:53.190Z,9.45
2023-02-08T02:19:52.638Z,9.18
2023-02-08T02:22:31.031Z,9.68
2023-02-08T02:25:26.482Z,9.70
2023-02-08T02:28:34.252Z,10.07
2023-02-08T02:31:36.681Z,9.38
2023-02-08T02:34:38.062Z,10.63
2023-02-08T02:37:19.607Z,10.13
2023-02-08T02:40:07.190Z,9.65
2023-02-08T02:43:27.463Z,9.48
2023-02-08T02:46:04.851Z,9.27
2023-02-08T02:48:42.330Z,10.13
2023-02-08T02:51:11.273Z,10.48
2023-02-08T02:53:56.169Z,10.90
2023-02-08T02:56:26.896Z,9.95
2023-02-08T02:58:58.833Z,10.00
2023-02-08T03:01:26.096Z,10.57
2023-02-08T03:03:54.033Z,9.52
2023-02-08T03:06:34.681Z,9.75
2023-02-08T03:09:35.011Z,10.55
2023-02-08T03:12:29.743Z,9.63
2023-02-08T03:15:20.921Z,10.35
2023-02-08T03:17:54.724Z,9.95
2023-02-08T03:20:53.464Z,10.05
2023-02-08T03:23:25.669Z,9.88
2023-02-08T03:26:02.827Z,11.65
2023-02-08T03:28:36.311Z,9.90
2023-02-08T03:31:33.099Z,10.32
2023-02-08T03:34:13.064Z,10.98
2023-02-08T03:36:48.975Z,11.88
2023-02-08T03:39:23.843Z,11.32
2023-02-08T03:41:54.247Z,10.52
2023-02-08T03:44:26.581Z,12.05
2023-02-08T03:47:02.698Z,11.60
2023-02-08T03:49:34.532Z,11.07
2023-02-08T03:52:04.513Z,10.95
2023-02-08T03:54:37.342Z,12.27
2023-02-08T03:57:19.862Z,11.05
2023-02-08T03:59:51.845Z,11.25
2023-02-08T04:02:21.197Z,11.48
2023-02-08T04:04:50.191Z,11.57
2023-02-08T04:07:18.014Z,10.90
2023-02-08T04:09:44.886Z,10.50
2023-02-08T04:12:11.486Z,11.77
2023-02-08T04:14:37.860Z,11.18
2023-02-08T04:17:04.368Z,11.15
2023-02-08T04:19:30.761Z,12.18
2023-02-08T04:21:57.149Z,10.60
2023-02-08T04:24:23.533Z,11.65
2023-02-08T04:26:49.905Z,10.90
2023-02-08T04:29:16.578Z,11.43
2023-02-08T04:31:42.942Z,11.32
2023-02-08T04:34:09.373Z,10.85
2023-02-08T04:36:36.175Z,11.10
2023-02-08T04:39:03.016Z,11.65
2023-02-08T04:41:29.445Z,11.45
2023-02-08T04:43:55.817Z,11.23
2023-02-08T04:46:22.247Z,11.32
2023-02-08T04:48:48.699Z,12.35
2023-02-08T04:51:15.091Z,11.55
2023-02-08T04:53:41.790Z,11.85
2023-02-08T04:56:08.262Z,11.48
2023-02-08T04:58:35.997Z,12.50
2023-02-08T05:01:10.741Z,12.85
2023-02-08T05:03:37.441Z,11.75
2023-02-08T05:06:03.873Z,12.40
2023-02-08T05:08:30.597Z,12.52
2023-02-08T05:10:57.114Z,13.07
2023-02-08T05:13:25.839Z,13.90
2023-02-08T05:15:52.301Z,12.52
2023-02-08T05:18:19.244Z,13.20
2023-02-08T05:20:45.729Z,14.02
2023-02-08T05:23:12.171Z,14.48
2023-02-08T05:25:39.750Z,15.45
2023-02-08T05:28:06.598Z,16.33
2023-02-08T05:30:33.137Z,14.63
2023-02-08T05:32:59.529Z,13.48
2023-02-08T05:35:25.974Z,12.90
2023-02-08T05:37:52.305Z,13.05
2023-02-08T05:40:18.752Z,13.48
2023-02-08T05:42:45.311Z,12.65
2023-02-08T05:45:11.720Z,12.73
2023-02-08T05:47:38.153Z,13.80
2023-02-08T05:50:05.013Z,12.90
2023-02-08T05:52:31.702Z,12.27
2023-02-08T05:54:58.311Z,12.00
2023-02-08T05:57:24.739Z,13.15
2023-02-08T05:59:53.569Z,11.20
2023-02-08T06:02:20.026Z,12.23
2023-02-08T06:04:46.525Z,12.02
2023-02-08T06:07:12.969Z,13.38
2023-02-08T06:09:39.394Z,12.18
2023-02-08T06:12:05.941Z,14.05
2023-02-08T06:14:37.891Z,14.35
2023-02-08T06:17:04.329Z,14.30
2023-02-08T06:19:30.851Z,15.73
2023-02-08T06:21:57.324Z,14.63
2023-02-08T06:24:25.512Z,13.52
2023-02-08T06:26:51.872Z,13.05
2023-02-08T06:29:18.287Z,12.23
2023-02-08T06:31:45.860Z,12.48
2023-02-08T06:34:12.340Z,11.73
2023-02-08T06:36:38.750Z,11.55
2023-02-08T06:39:05.328Z,10.85
2023-02-08T06:41:31.679Z,11.05
2023-02-08T06:44:02.144Z,11.43
2023-02-08T06:46:28.481Z,11.23
2023-02-08T06:48:56.874Z,11.02
2023-02-08T06:51:26.211Z,11.88
2023-02-08T06:53:52.720Z,12.25
2023-02-08T06:56:19.354Z,12.07
2023-02-08T06:58:45.866Z,12.80
2023-02-08T07:01:14.189Z,12.82
2023-02-08T07:03:40.982Z,11.70
2023-02-08T07:06:18.511Z,11.07
2023-02-08T07:08:48.691Z,11.98
2023-02-08T07:11:17.897Z,12.52
2023-02-08T07:13:48.312Z,12.07
2023-02-08T07:16:14.919Z,13.02
2023-02-08T07:18:43.607Z,13.05
2023-02-08T07:21:12.085Z,13.43
2023-02-08T07:23:39.427Z,14.93
2023-02-08T07:26:08.987Z,18.98
2023-02-08T07:28:35.887Z,20.05
2023-02-08T07:31:11.303Z,19.95
2023-02-08T07:33:39.539Z,22.95
2023-02-08T07:36:07.563Z,18.35
2023-02-08T07:38:34.208Z,16.20
2023-02-08T07:41:02.591Z,16.83
2023-02-08T07:43:28.948Z,15.85
2023-02-08T07:48:37.562Z,17.38
2023-02-08T07:53:46.631Z,15.10
2023-02-08T07:56:13.228Z,12.63
2023-02-08T07:58:39.660Z,12.63
2023-02-08T08:01:20.924Z,12.10
2023-02-08T08:03:48.678Z,13.27
2023-02-08T08:06:15.124Z,12.20
2023-02-08T08:08:42.326Z,11.55
2023-02-08T08:11:08.699Z,13.52
2023-02-08T08:13:35.042Z,11.95
2023-02-08T08:16:01.401Z,12.85
2023-02-08T08:18:27.757Z,12.32
2023-02-08T08:20:54.101Z,12.80
2023-02-08T08:23:20.964Z,12.13
2023-02-08T08:25:47.453Z,12.43
2023-02-08T08:28:13.934Z,13.20
2023-02-08T08:30:43.945Z,12.32
2023-02-08T08:33:10.989Z,12.80
2023-02-08T08:35:37.401Z,12.63
2023-02-08T08:38:03.837Z,11.32
2023-02-08T08:40:30.287Z,10.77
2023-02-08T08:42:57.134Z,10.82
2023-02-08T08:45:23.689Z,11.07
2023-02-08T08:47:50.069Z,11.40
2023-02-08T08:50:16.451Z,11.05
2023-02-08T08:52:42.935Z,10.50
2023-02-08T08:55:09.284Z,11.02
2023-02-08T08:57:35.708Z,10.25
2023-02-08T09:00:02.435Z,9.05
2023-02-08T09:02:34.448Z,10.25
2023-02-08T09:05:02.647Z,9.02
2023-02-08T09:07:29.051Z,9.25
2023-02-08T09:09:58.456Z,9.63
2023-02-08T09:12:24.807Z,9.05
2023-02-08T09:14:51.255Z,10.15
2023-02-08T09:17:30.350Z,8.85
2023-02-08T09:19:56.770Z,9.43
2023-02-08T09:22:23.149Z,9.18
2023-02-08T09:24:49.528Z,9.55
2023-02-08T09:27:16.036Z,8.65
2023-02-08T09:29:45.471Z,9.27
2023-02-08T09:32:11.897Z,9.40
2023-02-08T09:34:50.014Z,9.57
2023-02-08T09:37:18.007Z,9.23
2023-02-08T09:39:44.583Z,9.15
2023-02-08T09:42:43.403Z,8.98
2023-02-08T09:45:26.724Z,9.43
2023-02-08T09:47:59.194Z,9.35
2023-02-08T09:50:42.461Z,9.35
2023-02-08T09:53:34.162Z,9.33
2023-02-08T09:56:04.641Z,9.52
2023-02-08T09:58:38.734Z,8.57
2023-02-08T10:03:38.931Z,8.35
2023-02-08T10:06:08.080Z,8.55
2023-02-08T10:08:36.064Z,9.55
2023-02-08T10:11:05.391Z,9.02
2023-02-08T10:13:44.732Z,9.20
2023-02-08T10:16:47.142Z,9.00
2023-02-08T10:19:37.634Z,8.57
2023-02-08T10:22:22.873Z,7.53
2023-02-08T10:25:22.905Z,8.77
2023-02-08T10:27:56.935Z,8.73
2023-02-08T10:33:40.795Z,11.52
2023-02-08T10:36:20.794Z,9.93
2023-02-08T10:38:51.530Z,14.50
2023-02-08T10:41:25.966Z,14.05
2023-02-08T10:44:05.457Z,13.32
2023-02-08T10:46:56.454Z,12.65
2023-02-08T10:49:38.207Z,10.65
2023-02-08T10:52:05.992Z,10.52
2023-02-08T10:54:34.799Z,10.98
2023-02-08T10:57:13.171Z,11.15
2023-02-08T10:59:49.656Z,8.52
2023-02-08T11:02:40.348Z,8.75
2023-02-08T11:05:13.598Z,8.65
2023-02-08T11:07:40.627Z,8.38
2023-02-08T11:10:16.584Z,7.93
2023-02-08T11:12:53.436Z,9.02
2023-02-08T11:15:27.192Z,8.98
2023-02-08T11:17:57.765Z,9.50
2023-02-08T11:20:47.306Z,10.77
2023-02-08T11:23:23.862Z,11.18
2023-02-08T11:25:51.272Z,10.27
2023-02-08T11:28:30.015Z,9.20
2023-02-08T11:31:03.118Z,7.93
2023-02-08T11:33:30.788Z,8.80
2023-02-08T11:36:07.031Z,8.43
2023-02-08T11:38:36.211Z,8.68
2023-02-08T11:41:05.415Z,7.97
2023-02-08T11:43:36.173Z,7.63
2023-02-08T11:46:05.405Z,8.38
2023-02-08T11:48:45.395Z,8.07
2023-02-08T11:51:28.888Z,7.68
2023-02-08T11:53:56.908Z,7.35
2023-02-08T11:56:27.404Z,7.50
2023-02-08T11:58:58.381Z,7.57
2023-02-08T12:01:30.757Z,7.10
2023-02-08T12:03:59.390Z,6.95
2023-02-08T12:06:33.920Z,7.32
2023-02-08T12:09:07.439Z,7.40
2023-02-08T12:11:48.326Z,7.18
2023-02-08T12:14:47.256Z,7.38
2023-02-08T12:17:49.535Z,7.05
2023-02-08T12:20:33.653Z,6.65
2023-02-08T12:23:23.580Z,7.65
2023-02-08T12:26:12.376Z,6.85
2023-02-08T12:28:57.229Z,7.65
2023-02-08T12:31:45.124Z,6.63
2023-02-08T12:34:44.841Z,6.78
2023-02-08T12:38:22.582Z,6.18
2023-02-08T12:41:02.710Z,6.80
2023-02-08T12:43:45.824Z,6.88
2023-02-08T12:46:49.801Z,6.32
2023-02-08T12:49:41.130Z,6.85
2023-02-08T12:52:23.839Z,6.75
2023-02-08T12:54:53.225Z,6.30
2023-02-08T12:57:23.251Z,5.65
2023-02-08T13:00:05.063Z,5.95
2023-02-08T13:02:44.485Z,6.15
2023-02-08T13:05:22.110Z,6.15
2023-02-08T13:07:55.093Z,6.22
2023-02-08T13:10:31.664Z,6.55
2023-02-08T13:13:21.683Z,6.60
2023-02-08T13:16:09.343Z,6.40
2023-02-08T13:18:43.510Z,5.38
2023-02-08T13:21:18.433Z,6.10
2023-02-08T13:23:52.899Z,6.38
2023-02-08T13:26:24.405Z,5.57
2023-02-08T13:28:53.998Z,6.22
2023-02-08T13:31:34.393Z,6.07
2023-02-08T13:34:18.096Z,5.75
2023-02-08T13:36:59.462Z,5.90
2023-02-08T13:39:39.497Z,5.50
2023-02-08T13:42:08.352Z,5.47
2023-02-08T13:44:38.351Z,5.45
2023-02-08T13:47:07.336Z,5.68
2023-02-08T13:49:45.658Z,5.60
2023-02-08T13:52:46.314Z,5.65
2023-02-08T13:55:30.340Z,5.60
2023-02-08T13:57:58.993Z,5.55
2023-02-08T14:00:31.115Z,6.03
2023-02-08T14:03:03.297Z,5.75
2023-02-08T14:05:57.709Z,6.25
2023-02-08T14:08:33.035Z,6.07
2023-02-08T14:11:11.259Z,5.45
2023-02-08T14:13:59.677Z,5.88
2023-02-08T14:16:28.995Z,5.57
2023-02-08T14:18:59.001Z,6.05
2023-02-08T14:21:33.474Z,5.55
2023-02-08T14:24:06.052Z,6.00
2023-02-08T14:26:33.622Z,6.40
2023-02-08T14:29:02.876Z,6.20
2023-02-08T14:31:41.088Z,6.00
2023-02-08T14:34:21.385Z,6.10
2023-02-08T14:37:24.209Z,6.07
2023-02-08T14:40:16.254Z,5.78
2023-02-08T14:43:04.575Z,5.70
2023-02-08T14:45:36.619Z,5.32
2023-02-08T14:48:21.711Z,5.55
2023-02-08T14:51:02.963Z,5.65
2023-02-08T14:53:35.921Z,5.75
2023-02-08T14:56:15.656Z,5.82
2023-02-08T14:58:46.270Z,5.68
2023-02-08T15:01:18.216Z,6.18
2023-02-08T15:03:47.041Z,5.70
2023-02-08T15:06:30.830Z,5.82
2023-02-08T15:08:57.867Z,5.90
2023-02-08T15:11:28.112Z,5.57
2023-02-08T15:13:58.290Z,6.00
2023-02-08T15:16:33.344Z,5.13
2023-02-08T15:19:00.998Z,5.25
2023-02-08T15:21:32.121Z,4.90
2023-02-08T15:24:11.572Z,5.60
2023-02-08T15:26:44.389Z,5.30
2023-02-08T15:29:21.107Z,5.70
2023-02-08T15:31:48.637Z,5.13
2023-02-08T15:34:16.943Z,5.38
2023-02-08T15:36:49.487Z,5.15
2023-02-08T15:39:34.060Z,5.60
2023-02-08T15:44:32.856Z,5.53
2023-02-08T15:47:02.597Z,5.25
2023-02-08T15:49:36.882Z,5.70
2023-02-08T15:54:31.135Z,5.30
2023-02-08T15:57:03.046Z,5.43
2023-02-08T15:59:33.125Z,5.78
2023-02-08T16:02:15.795Z,5.15
2023-02-08T16:04:45.614Z,5.82
2023-02-08T16:07:39.400Z,5.00
2023-02-08T16:10:08.283Z,5.68
2023-02-08T16:12:35.491Z,5.82
2023-02-08T16:15:02.093Z,5.38
2023-02-08T16:17:40.585Z,6.32
2023-02-08T16:20:31.946Z,6.00
2023-02-08T16:23:03.645Z,6.03
2023-02-08T16:25:53.974Z,6.13
2023-02-08T16:28:28.293Z,6.57
2023-02-08T16:30:57.527Z,5.93
2023-02-08T16:33:24.761Z,6.60
2023-02-08T16:36:04.217Z,7.00
2023-02-08T16:38:33.746Z,6.78
2023-02-08T16:41:12.413Z,7.70
2023-02-08T16:43:44.485Z,6.90
2023-02-08T16:46:11.020Z,7.28
2023-02-08T16:48:40.245Z,7.85
2023-02-08T16:51:14.521Z,8.15
2023-02-08T16:53:42.771Z,8.88
2023-02-08T16:56:11.009Z,7.90
2023-02-08T16:58:38.062Z,7.88
2023-02-08T17:01:05.063Z,7.20
2023-02-08T17:03:32.635Z,6.18
2023-02-08T17:06:00.978Z,5.90
2023-02-08T17:08:27.840Z,5.75
2023-02-08T17:10:58.629Z,5.50
2023-02-08T17:13:28.406Z,5.90
2023-02-08T17:15:54.985Z,6.80
2023-02-08T17:18:22.523Z,6.65
2023-02-08T17:20:48.895Z,6.63
2023-02-08T17:23:15.759Z,6.45
2023-02-08T17:25:42.988Z,6.03
2023-02-08T17:28:17.005Z,6.60
2023-02-08T17:30:44.372Z,6.82
2023-02-08T17:33:17.968Z,5.93
2023-02-08T17:35:47.437Z,6.00
2023-02-08T17:38:15.309Z,7.70
2023-02-08T17:40:42.117Z,6.95
2023-02-08T17:43:08.502Z,6.60
2023-02-08T17:45:39.228Z,7.05
2023-02-08T17:48:06.333Z,6.68
2023-02-08T17:50:32.662Z,7.60
2023-02-08T17:52:58.991Z,7.85
2023-02-08T17:55:25.528Z,7.85
2023-02-08T17:57:52.812Z,9.23
2023-02-08T18:00:21.707Z,8.23
2023-02-08T18:02:51.160Z,8.15
2023-02-08T18:05:20.166Z,8.15
2023-02-08T18:07:47.044Z,8.27
2023-02-08T18:10:15.083Z,7.63
2023-02-08T18:12:42.179Z,7.82
2023-02-08T18:15:12.139Z,7.32
2023-02-08T18:17:39.545Z,7.95
2023-02-08T18:20:06.788Z,7.68
2023-02-08T18:22:33.284Z,7.57
2023-02-08T18:24:59.624Z,8.10
2023-02-08T18:27:27.220Z,8.02
2023-02-08T18:29:54.301Z,7.95
2023-02-08T18:32:21.981Z,7.35
2023-02-08T18:34:49.688Z,7.90
2023-02-08T18:37:18.576Z,7.97
2023-02-08T18:39:45.076Z,7.38
2023-02-08T18:42:11.939Z,7.70
2023-02-08T18:44:38.736Z,7.60
2023-02-08T18:47:07.082Z,7.35
2023-02-08T18:49:40.233Z,7.50
2023-02-08T18:52:11.490Z,8.50
2023-02-08T18:54:39.189Z,7.28
2023-02-08T18:57:06.217Z,7.95
2023-02-08T18:59:33.379Z,8.82
2023-02-08T19:02:01.555Z,7.72
2023-02-08T19:04:28.504Z,7.95
2023-02-08T19:06:54.889Z,6.95
2023-02-08T19:09:21.207Z,6.95
2023-02-08T19:11:47.583Z,7.20
2023-02-08T19:14:15.625Z,7.18
2023-02-08T19:16:43.032Z,6.70
2023-02-08T19:19:09.798Z,6.78
2023-02-08T19:21:36.424Z,7.20
2023-02-08T19:24:02.978Z,7.97
2023-02-08T19:26:32.633Z,7.68
2023-02-08T19:29:02.988Z,7.40
2023-02-08T19:31:30.404Z,7.78
2023-02-08T19:33:58.850Z,7.22
2023-02-08T19:36:28.855Z,7.55
2023-02-08T19:38:56.337Z,7.15
2023-02-08T19:41:26.268Z,7.72
2023-02-08T19:43:53.200Z,7.85
2023-02-08T19:46:25.571Z,9.75
2023-02-08T19:48:54.326Z,9.90
2023-02-08T19:51:21.252Z,8.82
2023-02-08T19:53:48.431Z,8.45
2023-02-08T19:56:16.906Z,8.40
2023-02-08T19:58:44.165Z,8.65
2023-02-08T20:01:19.347Z,8.23
2023-02-08T20:03:46.527Z,7.80
2023-02-08T20:06:18.903Z,8.63
2023-02-08T20:08:45.635Z,7.65
2023-02-08T20:11:21.918Z,7.53
2023-02-08T20:13:48.878Z,8.07
2023-02-08T20:16:15.786Z,8.82
2023-02-08T20:18:42.598Z,8.65
2023-02-08T20:21:09.270Z,8.32
2023-02-08T20:23:36.335Z,7.28
2023-02-08T20:26:08.747Z,7.53
2023-02-08T20:28:39.213Z,7.20
2023-02-08T20:31:07.687Z,7.20
2023-02-08T20:33:34.500Z,7.63
2023-02-08T20:36:09.396Z,7.55
2023-02-08T20:38:37.226Z,8.02
2023-02-08T20:41:05.730Z,9.20
2023-02-08T20:43:33.434Z,8.32
2023-02-08T20:46:00.411Z,9.10
2023-02-08T20:48:26.876Z,8.68
2023-02-08T20:50:53.248Z,8.85
2023-02-08T20:53:19.633Z,8.27
2023-02-08T20:55:46.202Z,8.63
2023-02-08T20:58:13.336Z,8.05
2023-02-08T21:00:42.692Z,8.38
2023-02-08T21:03:09.884Z,8.52
2023-02-08T21:05:36.222Z,8.35
2023-02-08T21:08:02.552Z,8.25
2023-02-08T21:10:28.957Z,8.18
2023-02-08T21:12:55.292Z,8.82
2023-02-08T21:15:21.709Z,8.13
2023-02-08T21:17:48.164Z,8.95
2023-02-08T21:20:15.079Z,8.70
2023-02-08T21:22:41.495Z,8.15
2023-02-08T21:25:09.267Z,8.18
2023-02-08T21:27:35.659Z,8.70
2023-02-08T21:30:02.179Z,7.78
2023-02-08T21:32:28.503Z,8.32
2023-02-08T21:34:54.829Z,7.88
2023-02-08T21:37:21.137Z,8.35
2023-02-08T21:39:47.492Z,7.93
2023-02-08T21:42:13.911Z,8.15
2023-02-08T21:44:40.305Z,7.97
2023-02-08T21:47:06.613Z,7.50
2023-02-08T21:49:51.545Z,7.80
2023-02-08T21:52:36.209Z,8.30
2023-02-08T21:55:02.604Z,7.97
2023-02-08T21:57:32.768Z,6.97
2023-02-08T22:00:04.877Z,8.18
2023-02-08T22:02:31.310Z,7.72
2023-02-08T22:04:59.826Z,9.10
2023-02-08T22:07:27.600Z,8.15
2023-02-08T22:09:54.648Z,8.02
2023-02-08T22:12:22.782Z,8.55
2023-02-08T22:14:50.782Z,9.23
2023-02-08T22:17:17.719Z,7.97
2023-02-08T22:19:44.258Z,8.05
2023-02-08T22:22:11.535Z,7.97
2023-02-08T22:24:38.437Z,7.85
2023-02-08T22:27:05.192Z,7.70
2023-02-08T22:29:32.033Z,7.68
2023-02-08T22:31:58.569Z,7.88
2023-02-08T22:34:26.897Z,7.55
2023-02-08T22:36:53.474Z,7.82
2023-02-08T22:39:20.588Z,7.35
2023-02-08T22:41:46.960Z,8.23
2023-02-08T22:44:13.293Z,7.93
2023-02-08T22:46:39.644Z,8.15
2023-02-08T22:49:08.434Z,7.95
2023-02-08T22:51:34.820Z,7.47
2023-02-08T22:54:01.169Z,7.68
2023-02-08T22:56:27.661Z,7.15
2023-02-08T22:58:53.980Z,8.30
2023-02-08T23:01:20.373Z,7.40
2023-02-08T23:03:46.732Z,7.43
2023-02-08T23:06:16.142Z,7.15
2023-02-08T23:08:42.848Z,7.25
2023-02-08T23:11:12.213Z,7.43
2023-02-08T23:13:38.563Z,7.43
2023-02-08T23:16:05.288Z,7.40
2023-02-08T23:18:31.672Z,7.43
2023-02-08T23:20:58.069Z,7.05
2023-02-08T23:23:24.400Z,7.55
2023-02-08T23:25:50.724Z,7.47
2023-02-08T23:28:17.136Z,7.75
2023-02-08T23:30:44.144Z,7.78
2023-02-08T23:33:10.777Z,8.20
2023-02-08T23:35:40.502Z,7.60
2023-02-08T23:38:07.328Z,7.65
2023-02-08T23:40:33.700Z,7.88
2023-02-08T23:43:00.056Z,8.27
2023-02-08T23:45:26.560Z,8.02
2023-02-08T23:47:52.889Z,7.82
2023-02-08T23:50:19.385Z,7.13
2023-02-08T23:52:45.682Z,8.57
2023-02-08T23:55:12.047Z,7.93
2023-02-08T23:57:38.501Z,8.32
